createdAt,value
2022-09-16T00:00:53.593Z,68.90
2022-09-16T00:03:20.532Z,69.10
2022-09-16T00:05:50.792Z,69.20
2022-09-16T00:08:18.702Z,69.20
2022-09-16T00:10:46.071Z,69.40
2022-09-16T00:13:13.818Z,69.40
2022-09-16T00:15:46.205Z,69.30
2022-09-16T00:18:14.782Z,69.40
2022-09-16T00:20:46.937Z,69.50
2022-09-16T00:23:13.970Z,69.70
2022-09-16T00:25:41.314Z,69.70
2022-09-16T00:28:09.055Z,69.70
2022-09-16T00:30:36.367Z,69.70
2022-09-16T00:33:03.457Z,69.80
2022-09-16T00:35:30.362Z,69.90
2022-09-16T00:37:57.408Z,70.10
2022-09-16T00:40:24.547Z,70.20
2022-09-16T00:42:53.191Z,70.20
2022-09-16T00:45:23.268Z,70.40
2022-09-16T00:48:09.830Z,70.50
2022-09-16T00:50:41.790Z,70.30
2022-09-16T00:53:15.455Z,70.50
2022-09-16T00:55:43.553Z,70.60
2022-09-16T00:58:30.560Z,70.70
2022-09-16T01:00:57.576Z,70.60
2022-09-16T01:03:26.338Z,70.60
2022-09-16T01:05:53.537Z,70.80
2022-09-16T01:08:21.010Z,71.10
2022-09-16T01:10:47.828Z,71.00
2022-09-16T01:13:15.683Z,71.00
2022-09-16T01:16:06.718Z,71.20
2022-09-16T01:19:11.075Z,71.20
2022-09-16T01:22:04.442Z,71.30
2022-09-16T01:25:00.147Z,71.20
2022-09-16T01:28:03.952Z,71.40
2022-09-16T01:30:40.629Z,71.50
2022-09-16T01:33:25.921Z,71.60
2022-09-16T01:36:03.311Z,71.90
2022-09-16T01:38:54.028Z,72.00
2022-09-16T01:41:30.177Z,72.50
2022-09-16T01:44:14.000Z,72.50
2022-09-16T01:46:59.540Z,72.70
2022-09-16T01:49:35.576Z,72.80
2022-09-16T01:52:41.679Z,73.00
2022-09-16T01:55:19.188Z,72.90
2022-09-16T01:58:06.088Z,72.90
2022-09-16T02:00:33.842Z,72.80
2022-09-16T02:03:06.410Z,72.80
2022-09-16T02:05:48.713Z,72.80
2022-09-16T02:08:44.433Z,72.60
2022-09-16T02:11:15.872Z,72.70
2022-09-16T02:14:02.626Z,72.50
2022-09-16T02:16:35.923Z,72.50
2022-09-16T02:19:12.051Z,72.70
2022-09-16T02:21:45.661Z,72.70
2022-09-16T02:24:17.724Z,72.90
2022-09-16T02:26:57.377Z,72.90
2022-09-16T02:29:28.914Z,73.10
2022-09-16T02:32:00.996Z,73.20
2022-09-16T02:34:51.120Z,73.10
2022-09-16T02:37:34.021Z,73.30
2022-09-16T02:40:06.363Z,73.40
2022-09-16T02:42:34.992Z,73.50
2022-09-16T02:45:03.715Z,73.40
2022-09-16T02:47:33.075Z,73.50
2022-09-16T02:50:23.958Z,73.70
2022-09-16T02:53:08.949Z,73.70
2022-09-16T02:55:45.652Z,73.90
2022-09-16T02:58:12.661Z,74.10
2022-09-16T03:00:43.835Z,74.10
2022-09-16T03:03:10.945Z,74.40
2022-09-16T03:05:41.183Z,74.60
2022-09-16T03:08:08.055Z,74.80
2022-09-16T03:10:45.965Z,74.60
2022-09-16T03:13:19.743Z,74.90
2022-09-16T03:15:58.415Z,75.00
2022-09-16T03:18:25.316Z,75.00
2022-09-16T03:21:32.086Z,75.50
2022-09-16T03:24:16.287Z,75.40
2022-09-16T03:27:08.151Z,75.50
2022-09-16T03:29:46.060Z,75.90
2022-09-16T03:32:28.051Z,76.00
2022-09-16T03:35:02.555Z,76.00
2022-09-16T03:37:36.438Z,76.20
2022-09-16T03:40:12.084Z,76.30
2022-09-16T03:42:40.878Z,76.40
2022-09-16T03:45:08.789Z,76.80
2022-09-16T03:47:35.909Z,76.90
2022-09-16T03:50:03.768Z,77.10
2022-09-16T03:52:30.775Z,77.10
2022-09-16T03:54:57.713Z,77.40
2022-09-16T03:57:24.713Z,77.30
2022-09-16T03:59:51.541Z,77.40
2022-09-16T04:02:19.688Z,77.50
2022-09-16T04:04:46.779Z,77.60
2022-09-16T04:07:13.758Z,77.90
2022-09-16T04:09:40.824Z,78.70
2022-09-16T04:12:08.282Z,78.10
2022-09-16T04:14:36.939Z,78.10
2022-09-16T04:17:04.279Z,78.40
2022-09-16T04:19:31.360Z,78.90
2022-09-16T04:21:58.243Z,79.10
2022-09-16T04:24:25.351Z,79.40
2022-09-16T04:26:53.515Z,79.50
2022-09-16T04:29:20.330Z,79.90
2022-09-16T04:31:47.205Z,80.50
2022-09-16T04:34:14.668Z,80.50
2022-09-16T04:36:41.473Z,80.80
2022-09-16T04:39:08.512Z,80.60
2022-09-16T04:41:36.037Z,81.20
2022-09-16T04:44:03.121Z,81.50
2022-09-16T04:46:32.423Z,81.00
2022-09-16T04:49:00.395Z,81.60
2022-09-16T04:51:28.565Z,82.00
2022-09-16T04:53:56.144Z,82.10
2022-09-16T04:56:28.870Z,82.40
2022-09-16T04:58:58.922Z,82.50
2022-09-16T05:01:28.666Z,82.40
2022-09-16T05:03:58.831Z,82.70
2022-09-16T05:06:28.169Z,83.00
2022-09-16T05:08:56.471Z,83.20
2022-09-16T05:11:32.231Z,83.20
2022-09-16T05:14:00.322Z,83.30
2022-09-16T05:16:27.980Z,82.70
2022-09-16T05:18:57.350Z,83.20
2022-09-16T05:21:27.358Z,82.90
2022-09-16T05:23:56.096Z,82.70
2022-09-16T05:26:25.451Z,82.40
2022-09-16T05:28:53.234Z,82.40
2022-09-16T05:31:26.692Z,82.30
2022-09-16T05:34:02.257Z,82.30
2022-09-16T05:36:33.108Z,82.40
2022-09-16T05:41:51.001Z,82.30
2022-09-16T05:44:17.899Z,82.70
2022-09-16T05:46:44.772Z,82.70
2022-09-16T05:49:11.692Z,82.50
2022-09-16T05:51:41.262Z,82.60
2022-09-16T05:54:08.570Z,82.90
2022-09-16T05:56:36.923Z,82.30
2022-09-16T05:59:04.077Z,82.20
2022-09-16T06:01:37.427Z,82.90
2022-09-16T06:04:06.540Z,82.20
2022-09-16T06:06:39.987Z,82.50
2022-09-16T06:09:09.069Z,82.20
2022-09-16T06:11:44.649Z,81.90
2022-09-16T06:14:12.652Z,82.00
2022-09-16T06:16:39.835Z,82.30
2022-09-16T06:19:11.163Z,82.30
2022-09-16T06:21:39.147Z,82.20
2022-09-16T06:24:08.921Z,82.80
2022-09-16T06:26:40.983Z,82.90
2022-09-16T06:29:09.353Z,82.30
2022-09-16T06:31:38.047Z,83.40
2022-09-16T06:34:05.814Z,82.90
2022-09-16T06:36:35.695Z,82.40
2022-09-16T06:39:04.115Z,81.80
2022-09-16T06:41:33.460Z,82.30
2022-09-16T06:44:00.628Z,82.10
2022-09-16T06:46:29.100Z,82.40
2022-09-16T06:49:01.453Z,81.90
2022-09-16T06:51:32.377Z,82.10
2022-09-16T06:54:02.065Z,82.20
2022-09-16T06:56:28.929Z,82.70
2022-09-16T06:58:55.918Z,83.00
2022-09-16T07:01:31.998Z,83.00
2022-09-16T07:04:03.350Z,83.20
2022-09-16T07:07:04.792Z,83.20
2022-09-16T07:09:18.106Z,83.30
2022-09-16T07:11:45.155Z,83.50
2022-09-16T07:14:12.396Z,83.60
2022-09-16T07:16:39.416Z,83.70
2022-09-16T07:19:06.639Z,83.70
2022-09-16T07:21:34.757Z,84.80
2022-09-16T07:24:02.576Z,84.80
2022-09-16T07:26:43.865Z,84.90
2022-09-16T07:29:17.215Z,85.20
2022-09-16T07:31:44.212Z,85.10
2022-09-16T07:34:13.053Z,85.10
2022-09-16T07:36:46.863Z,85.50
2022-09-16T07:39:18.059Z,85.70
2022-09-16T07:41:48.755Z,85.30
2022-09-16T07:44:17.921Z,85.70
2022-09-16T07:46:45.055Z,85.00
2022-09-16T07:49:14.340Z,85.40
2022-09-16T07:51:41.477Z,85.30
2022-09-16T07:54:11.453Z,84.40
2022-09-16T07:56:40.599Z,84.80
2022-09-16T07:59:14.239Z,84.70
2022-09-16T08:01:45.026Z,83.70
2022-09-16T08:04:12.504Z,82.70
2022-09-16T08:06:40.430Z,82.70
2022-09-16T08:09:37.323Z,81.80
2022-09-16T08:11:55.075Z,81.10
2022-09-16T08:14:21.979Z,80.40
2022-09-16T08:16:51.621Z,80.10
2022-09-16T08:19:20.495Z,79.80
2022-09-16T08:21:47.412Z,79.20
2022-09-16T08:24:14.371Z,78.20
2022-09-16T08:26:41.266Z,78.90
2022-09-16T08:29:09.790Z,79.10
2022-09-16T08:31:37.996Z,78.60
2022-09-16T08:34:05.382Z,79.60
2022-09-16T08:36:35.148Z,79.90
2022-09-16T08:39:02.091Z,79.80
2022-09-16T08:41:55.172Z,79.50
2022-09-16T08:44:30.850Z,79.50
2022-09-16T08:47:19.459Z,79.00
2022-09-16T08:49:48.011Z,79.10
2022-09-16T08:52:36.728Z,79.00
2022-09-16T08:55:07.114Z,78.90
2022-09-16T08:57:43.483Z,79.20
2022-09-16T09:00:18.402Z,79.00
2022-09-16T09:02:56.935Z,79.50
2022-09-16T09:05:29.357Z,79.30
2022-09-16T09:08:19.833Z,77.70
2022-09-16T09:10:52.257Z,76.20
2022-09-16T09:13:40.970Z,75.60
2022-09-16T09:16:33.384Z,75.30
2022-09-16T09:19:43.648Z,75.10
2022-09-16T09:22:21.393Z,72.30
2022-09-16T09:25:27.467Z,71.80
2022-09-16T09:28:41.929Z,72.50
2022-09-16T09:31:10.862Z,71.10
2022-09-16T09:34:05.850Z,67.80
2022-09-16T09:37:02.507Z,67.50
2022-09-16T09:39:29.393Z,66.20
2022-09-16T09:42:16.715Z,64.70
2022-09-16T09:45:02.353Z,65.10
2022-09-16T09:47:51.282Z,63.80
2022-09-16T09:50:38.082Z,63.90
2022-09-16T09:53:28.801Z,62.10
2022-09-16T09:56:16.470Z,62.30
2022-09-16T09:58:54.505Z,61.20
2022-09-16T10:01:21.600Z,62.10
2022-09-16T10:03:51.030Z,61.50
2022-09-16T10:06:28.892Z,61.90
2022-09-16T10:08:57.856Z,60.30
2022-09-16T10:11:32.011Z,59.70
2022-09-16T10:14:02.638Z,58.80
2022-09-16T10:16:40.547Z,58.70
2022-09-16T10:19:20.987Z,58.70
2022-09-16T10:22:09.874Z,58.70
2022-09-16T10:24:41.774Z,58.90
2022-09-16T10:27:30.482Z,58.90
2022-09-16T10:30:15.352Z,58.60
2022-09-16T10:33:14.275Z,58.20
2022-09-16T10:35:51.269Z,57.10
2022-09-16T10:38:23.519Z,57.70
2022-09-16T10:41:03.784Z,58.10
2022-09-16T10:43:32.166Z,57.70
2022-09-16T10:45:59.375Z,57.90
2022-09-16T10:48:31.836Z,58.40
2022-09-16T10:51:05.397Z,57.00
2022-09-16T10:53:39.569Z,57.30
2022-09-16T10:56:18.462Z,56.90
2022-09-16T10:58:45.399Z,56.60
2022-09-16T11:01:38.046Z,56.80
2022-09-16T11:04:37.522Z,54.90
2022-09-16T11:07:38.479Z,55.40
2022-09-16T11:10:24.225Z,54.20
2022-09-16T11:13:21.926Z,53.90
2022-09-16T11:15:48.733Z,52.90
2022-09-16T11:18:34.360Z,52.80
2022-09-16T11:21:24.463Z,54.00
2022-09-16T11:24:05.861Z,54.10
2022-09-16T11:27:06.998Z,55.30
2022-09-16T11:29:52.475Z,53.90
2022-09-16T11:32:35.427Z,53.50
2022-09-16T11:35:05.504Z,54.40
2022-09-16T11:37:38.396Z,53.30
2022-09-16T11:40:27.355Z,53.00
2022-09-16T11:43:25.335Z,52.70
2022-09-16T11:46:07.241Z,53.00
2022-09-16T11:49:05.247Z,52.90
2022-09-16T11:52:23.431Z,52.50
2022-09-16T11:54:53.472Z,52.90
2022-09-16T11:57:27.631Z,53.30
2022-09-16T12:00:00.706Z,53.10
2022-09-16T12:02:58.612Z,53.20
2022-09-16T12:05:53.492Z,53.70
2022-09-16T12:08:44.720Z,52.80
2022-09-16T12:11:21.916Z,53.60
2022-09-16T12:14:05.662Z,53.00
2022-09-16T12:16:51.494Z,52.60
2022-09-16T12:19:23.799Z,53.70
2022-09-16T12:22:13.546Z,53.20
2022-09-16T12:24:45.879Z,53.40
2022-09-16T12:27:36.691Z,53.50
2022-09-16T12:30:27.515Z,53.90
2022-09-16T12:33:17.244Z,54.80
2022-09-16T12:35:52.570Z,55.10
2022-09-16T12:38:22.129Z,55.50
2022-09-16T12:41:13.799Z,56.40
2022-09-16T12:44:23.489Z,57.50
2022-09-16T12:47:16.416Z,59.70
2022-09-16T12:50:17.489Z,60.50
2022-09-16T12:53:32.593Z,60.80
2022-09-16T12:56:31.975Z,60.50
2022-09-16T12:59:47.041Z,60.20
2022-09-16T13:02:28.814Z,62.50
2022-09-16T13:05:02.134Z,64.80
2022-09-16T13:07:35.494Z,66.40
2022-09-16T13:10:26.440Z,67.10
2022-09-16T13:13:04.586Z,66.80
2022-09-16T13:15:38.160Z,66.50
2022-09-16T13:18:20.984Z,65.00
2022-09-16T13:20:58.151Z,64.50
2022-09-16T13:23:34.690Z,62.90
2022-09-16T13:26:07.141Z,62.60
2022-09-16T13:28:46.823Z,63.30
2022-09-16T13:31:18.099Z,62.40
2022-09-16T13:34:02.255Z,62.90
2022-09-16T13:36:32.652Z,60.90
2022-09-16T13:39:02.641Z,60.90
2022-09-16T13:41:38.773Z,61.90
2022-09-16T13:44:42.919Z,62.40
2022-09-16T13:47:13.859Z,63.10
2022-09-16T13:50:14.175Z,59.40
2022-09-16T13:52:42.774Z,59.80
2022-09-16T13:55:25.458Z,58.20
2022-09-16T13:57:58.703Z,58.80
2022-09-16T14:00:33.738Z,58.60
2022-09-16T14:03:27.068Z,57.80
2022-09-16T14:06:23.903Z,57.50
2022-09-16T14:09:16.871Z,59.80
2022-09-16T14:12:13.453Z,61.50
2022-09-16T14:14:47.309Z,61.10
2022-09-16T14:17:24.106Z,61.50
2022-09-16T14:19:58.424Z,64.20
2022-09-16T14:22:27.449Z,64.60
2022-09-16T14:25:06.221Z,62.70
2022-09-16T14:27:39.685Z,61.00
2022-09-16T14:30:14.915Z,62.60
2022-09-16T14:32:42.690Z,62.10
2022-09-16T14:35:24.246Z,65.30
2022-09-16T14:38:00.346Z,63.40
2022-09-16T14:40:28.481Z,62.80
2022-09-16T14:42:57.818Z,62.30
2022-09-16T14:45:25.543Z,60.10
2022-09-16T14:47:55.114Z,59.10
2022-09-16T14:50:28.553Z,59.10
2022-09-16T14:52:56.798Z,58.20
2022-09-16T14:55:25.524Z,59.40
2022-09-16T14:57:53.759Z,59.60
2022-09-16T15:00:21.369Z,59.40
2022-09-16T15:02:58.192Z,59.70
2022-09-16T15:05:34.003Z,59.70
2022-09-16T15:08:19.916Z,59.40
2022-09-16T15:10:52.395Z,60.60
2022-09-16T15:13:23.625Z,60.60
2022-09-16T15:16:01.962Z,60.50
2022-09-16T15:18:32.981Z,60.80
2022-09-16T15:21:19.994Z,59.80
2022-09-16T15:23:50.292Z,59.80
2022-09-16T15:26:23.005Z,60.10
2022-09-16T15:28:56.106Z,60.30
2022-09-16T15:31:50.704Z,59.50
2022-09-16T15:34:19.043Z,60.00
2022-09-16T15:36:47.335Z,59.00
2022-09-16T15:39:40.795Z,57.30
2022-09-16T15:42:26.383Z,57.50
2022-09-16T15:44:54.504Z,57.40
2022-09-16T15:47:29.630Z,57.40
2022-09-16T15:50:12.818Z,56.40
2022-09-16T15:53:04.392Z,55.90
2022-09-16T15:55:55.113Z,57.30
2022-09-16T15:58:39.632Z,57.30
2022-09-16T16:01:06.875Z,57.00
2022-09-16T16:03:48.690Z,57.50
2022-09-16T16:06:16.452Z,56.80
2022-09-16T16:08:49.244Z,56.40
2022-09-16T16:11:21.222Z,56.30
2022-09-16T16:13:50.587Z,56.40
2022-09-16T16:16:20.897Z,57.10
2022-09-16T16:18:50.416Z,57.50
2022-09-16T16:21:17.472Z,57.90
2022-09-16T16:23:44.460Z,57.60
2022-09-16T16:26:11.857Z,58.30
2022-09-16T16:28:39.030Z,58.10
2022-09-16T16:31:17.764Z,58.40
2022-09-16T16:33:47.672Z,58.20
2022-09-16T16:36:16.914Z,58.70
2022-09-16T16:38:45.744Z,59.10
2022-09-16T16:41:13.640Z,58.70
2022-09-16T16:43:40.736Z,58.70
2022-09-16T16:46:07.760Z,59.10
2022-09-16T16:48:35.644Z,58.80
2022-09-16T16:51:05.897Z,58.90
2022-09-16T16:53:32.904Z,58.70
2022-09-16T16:56:05.474Z,58.00
2022-09-16T16:58:36.064Z,57.80
2022-09-16T17:01:17.618Z,57.70
2022-09-16T17:03:46.446Z,57.70
2022-09-16T17:06:14.092Z,57.80
2022-09-16T17:08:41.429Z,58.00
2022-09-16T17:11:19.665Z,57.80
2022-09-16T17:13:51.892Z,57.80
2022-09-16T17:16:21.501Z,58.00
2022-09-16T17:18:49.139Z,58.20
2022-09-16T17:21:21.939Z,58.20
2022-09-16T17:23:48.937Z,58.20
2022-09-16T17:26:16.511Z,58.40
2022-09-16T17:28:45.749Z,58.50
2022-09-16T17:31:16.772Z,58.80
2022-09-16T17:33:44.514Z,58.20
2022-09-16T17:36:14.098Z,58.00
2022-09-16T17:38:41.524Z,57.80
2022-09-16T17:41:14.545Z,58.10
2022-09-16T17:43:43.174Z,58.00
2022-09-16T17:46:15.996Z,58.20
2022-09-16T17:48:42.987Z,58.60
2022-09-16T17:51:10.926Z,59.40
2022-09-16T17:53:38.247Z,60.80
2022-09-16T17:56:23.692Z,61.00
2022-09-16T17:58:52.742Z,61.60
2022-09-16T18:01:24.722Z,61.80
2022-09-16T18:03:54.599Z,62.70
2022-09-16T18:06:28.345Z,62.70
2022-09-16T18:08:55.597Z,63.20
2022-09-16T18:11:22.936Z,63.60
2022-09-16T18:13:59.229Z,63.30
2022-09-16T18:16:27.931Z,63.60
2022-09-16T18:19:01.434Z,62.40
2022-09-16T18:21:29.142Z,62.20
2022-09-16T18:23:58.565Z,62.00
2022-09-16T18:26:26.416Z,62.40
2022-09-16T18:29:11.577Z,61.60
2022-09-16T18:31:41.958Z,61.40
2022-09-16T18:34:09.427Z,61.50
2022-09-16T18:36:37.881Z,61.90
2022-09-16T18:39:06.039Z,61.80
2022-09-16T18:41:36.962Z,61.60
2022-09-16T18:44:07.660Z,61.10
2022-09-16T18:46:37.446Z,60.80
2022-09-16T18:49:05.489Z,60.50
2022-09-16T18:51:37.343Z,60.80
2022-09-16T18:54:06.990Z,61.20
2022-09-16T18:56:36.572Z,60.40
2022-09-16T18:59:24.039Z,60.10
2022-09-16T19:01:54.013Z,60.10
2022-09-16T19:04:23.769Z,60.00
2022-09-16T19:06:53.418Z,59.90
2022-09-16T19:09:22.349Z,60.20
2022-09-16T19:11:52.360Z,60.10
2022-09-16T19:14:20.977Z,60.00
2022-09-16T19:16:48.125Z,59.60
2022-09-16T19:19:15.343Z,59.20
2022-09-16T19:21:43.894Z,59.20
2022-09-16T19:24:16.295Z,59.00
2022-09-16T19:26:44.836Z,59.40
2022-09-16T19:29:14.760Z,59.30
2022-09-16T19:31:46.493Z,59.40
2022-09-16T19:34:16.454Z,59.80
2022-09-16T19:36:44.999Z,59.70
2022-09-16T19:39:14.646Z,59.90
2022-09-16T19:41:42.102Z,60.00
2022-09-16T19:44:14.528Z,60.30
2022-09-16T19:46:42.888Z,60.50
2022-09-16T19:49:18.036Z,60.40
2022-09-16T19:51:45.249Z,60.10
2022-09-16T19:54:12.780Z,60.50
2022-09-16T19:56:39.895Z,60.40
2022-09-16T19:59:07.341Z,60.30
2022-09-16T20:01:37.401Z,60.00
2022-09-16T20:04:08.334Z,59.80
2022-09-16T20:06:40.622Z,60.30
2022-09-16T20:09:13.874Z,60.00
2022-09-16T20:11:43.631Z,60.00
2022-09-16T20:14:21.433Z,60.30
2022-09-16T20:16:50.144Z,60.20
2022-09-16T20:19:18.870Z,60.30
2022-09-16T20:21:45.841Z,60.00
2022-09-16T20:24:21.409Z,60.10
2022-09-16T20:26:49.570Z,60.00
2022-09-16T20:29:17.690Z,60.20
2022-09-16T20:31:45.369Z,60.30
2022-09-16T20:34:14.816Z,60.60
2022-09-16T20:36:42.892Z,60.20
2022-09-16T20:39:10.514Z,60.40
2022-09-16T20:41:39.214Z,60.30
2022-09-16T20:44:06.995Z,60.30
2022-09-16T20:46:36.804Z,60.10
2022-09-16T20:49:07.289Z,60.10
2022-09-16T20:51:34.901Z,60.10
2022-09-16T20:54:09.201Z,60.20
2022-09-16T20:56:39.452Z,60.20
2022-09-16T20:59:11.933Z,60.00
2022-09-16T21:01:40.729Z,60.40
2022-09-16T21:04:18.155Z,60.10
2022-09-16T21:06:45.601Z,60.30
2022-09-16T21:09:16.504Z,60.40
2022-09-16T21:11:45.319Z,60.60
2022-09-16T21:14:15.254Z,60.50
2022-09-16T21:16:43.810Z,60.20
2022-09-16T21:19:12.805Z,60.10
2022-09-16T21:21:43.257Z,60.10
2022-09-16T21:24:10.276Z,60.00
2022-09-16T21:26:39.166Z,60.10
2022-09-16T21:29:11.945Z,60.10
2022-09-16T21:31:40.810Z,60.10
2022-09-16T21:34:17.075Z,60.00
2022-09-16T21:36:46.658Z,60.00
2022-09-16T21:39:15.097Z,59.60
2022-09-16T21:41:43.402Z,59.80
2022-09-16T21:44:11.143Z,59.70
2022-09-16T21:46:41.529Z,59.60
2022-09-16T21:49:25.743Z,59.60
2022-09-16T21:51:55.351Z,59.80
2022-09-16T21:54:24.591Z,59.70
2022-09-16T21:56:52.221Z,59.70
2022-09-16T21:59:19.915Z,59.70
2022-09-16T22:01:47.546Z,59.70
2022-09-16T22:04:17.785Z,59.50
2022-09-16T22:06:45.490Z,59.40
2022-09-16T22:09:14.823Z,59.40
2022-09-16T22:11:42.053Z,59.70
2022-09-16T22:14:11.319Z,59.20
2022-09-16T22:16:39.245Z,59.40
2022-09-16T22:19:24.960Z,59.10
2022-09-16T22:21:51.901Z,59.20
2022-09-16T22:24:24.495Z,59.20
2022-09-16T22:26:52.195Z,59.40
2022-09-16T22:29:19.568Z,59.30
2022-09-16T22:31:46.901Z,59.20
2022-09-16T22:34:16.266Z,58.70
2022-09-16T22:36:43.681Z,58.60
2022-09-16T22:39:21.082Z,58.90
2022-09-16T22:41:48.277Z,58.80
2022-09-16T22:44:15.196Z,58.60
2022-09-16T22:46:47.261Z,58.50
2022-09-16T22:49:15.469Z,58.80
2022-09-16T22:51:44.083Z,58.70
2022-09-16T22:54:12.802Z,58.70
2022-09-16T22:56:40.265Z,59.10
2022-09-16T22:59:08.485Z,59.20
2022-09-16T23:01:43.116Z,59.00
2022-09-16T23:04:13.095Z,58.70
2022-09-16T23:06:41.381Z,59.00
2022-09-16T23:09:09.159Z,58.90
2022-09-16T23:11:38.441Z,59.00
2022-09-16T23:14:06.525Z,58.80
2022-09-16T23:16:35.917Z,58.90
2022-09-16T23:19:05.973Z,59.20
2022-09-16T23:21:33.111Z,59.10
2022-09-16T23:24:02.313Z,58.50
2022-09-16T23:26:32.560Z,58.70
2022-09-16T23:29:01.035Z,58.80
2022-09-16T23:31:34.324Z,58.80
2022-09-16T23:34:09.489Z,58.70
2022-09-16T23:36:39.971Z,59.00
2022-09-16T23:39:08.077Z,58.70
2022-09-16T23:41:35.333Z,58.80
2022-09-16T23:44:03.087Z,58.30
2022-09-16T23:46:31.209Z,58.80
2022-09-16T23:48:58.444Z,58.60
2022-09-16T23:51:28.598Z,58.50
2022-09-16T23:53:57.269Z,58.40
2022-09-16T23:56:24.291Z,58.50
2022-09-16T23:58:51.666Z,58.60
